createdAt,value
2018-08-06T00:00:48.021Z,1020.07
2018-08-06T00:01:47.999Z,1020.08
2018-08-06T00:02:47.977Z,1020.06
2018-08-06T00:03:47.953Z,1020.02
2018-08-06T00:04:47.931Z,1020.02
2018-08-06T00:05:47.909Z,1020.01
2018-08-06T00:06:47.887Z,1019.98
2018-08-06T00:07:47.865Z,1019.97
2018-08-06T00:08:47.844Z,1019.98
2018-08-06T00:09:47.818Z,1019.98
2018-08-06T00:10:47.797Z,1019.94
2018-08-06T00:11:47.776Z,1019.92
2018-08-06T00:12:47.755Z,1019.91
2018-08-06T00:13:47.731Z,1019.95
2018-08-06T00:14:47.708Z,1019.93
2018-08-06T00:15:47.686Z,1019.95
2018-08-06T00:16:47.664Z,1019.94
2018-08-06T00:17:47.642Z,1019.95
2018-08-06T00:18:47.622Z,1019.93
2018-08-06T00:19:47.597Z,1019.94
2018-08-06T00:20:47.574Z,1019.96
2018-08-06T00:21:47.551Z,1019.93
2018-08-06T00:22:47.529Z,1019.93
2018-08-06T00:23:47.509Z,1019.95
2018-08-06T00:24:47.485Z,1019.91
2018-08-06T00:25:47.464Z,1019.93
2018-08-06T00:26:47.443Z,1019.88
2018-08-06T00:27:47.417Z,1019.89
2018-08-06T00:28:47.396Z,1019.86
2018-08-06T00:29:47.372Z,1019.85
2018-08-06T00:30:47.350Z,1019.87
2018-08-06T00:31:47.327Z,1019.89
2018-08-06T00:32:47.306Z,1019.91
2018-08-06T00:33:47.281Z,1019.88
2018-08-06T00:34:47.260Z,1019.89
2018-08-06T00:35:47.240Z,1019.86
2018-08-06T00:36:47.215Z,1019.83
2018-08-06T00:37:47.190Z,1019.86
2018-08-06T00:38:47.169Z,1019.84
2018-08-06T00:39:47.147Z,1019.81
2018-08-06T00:40:47.126Z,1019.81
2018-08-06T00:41:47.101Z,1019.77
2018-08-06T00:42:47.078Z,1019.75
2018-08-06T00:43:47.060Z,1019.74
2018-08-06T00:44:47.035Z,1019.72
2018-08-06T00:45:47.010Z,1019.71
2018-08-06T00:46:46.988Z,1019.76
2018-08-06T00:47:46.966Z,1019.71
2018-08-06T00:48:46.944Z,1019.70
2018-08-06T00:49:46.921Z,1019.70
2018-08-06T00:50:46.898Z,1019.71
2018-08-06T00:51:46.877Z,1019.70
2018-08-06T00:52:46.854Z,1019.66
2018-08-06T00:53:46.829Z,1019.72
2018-08-06T00:54:46.808Z,1019.70
2018-08-06T00:55:46.785Z,1019.69
2018-08-06T00:56:46.763Z,1019.68
2018-08-06T00:57:46.740Z,1019.70
2018-08-06T00:58:46.718Z,1019.67
2018-08-06T00:59:46.694Z,1019.67
2018-08-06T01:00:46.671Z,1019.68
2018-08-06T01:01:46.650Z,1019.68
2018-08-06T01:02:46.629Z,1019.66
2018-08-06T01:03:46.604Z,1019.64
2018-08-06T01:04:46.582Z,1019.72
2018-08-06T01:05:46.562Z,1019.69
2018-08-06T01:06:46.536Z,1019.68
2018-08-06T01:07:46.512Z,1019.72
2018-08-06T01:08:46.490Z,1019.72
2018-08-06T01:09:46.467Z,1019.70
2018-08-06T01:10:46.444Z,1019.72
2018-08-06T01:11:46.423Z,1019.70
2018-08-06T01:12:46.401Z,1019.70
2018-08-06T01:13:46.376Z,1019.69
2018-08-06T01:14:46.353Z,1019.69
2018-08-06T01:15:46.330Z,1019.67
2018-08-06T01:16:46.311Z,1019.66
2018-08-06T01:17:46.283Z,1019.68
2018-08-06T01:18:46.262Z,1019.67
2018-08-06T01:19:46.239Z,1019.63
2018-08-06T01:20:46.217Z,1019.67
2018-08-06T01:21:46.193Z,1019.69
2018-08-06T01:22:46.174Z,1019.66
2018-08-06T01:23:46.146Z,1019.69
2018-08-06T01:24:46.131Z,1019.69
2018-08-06T01:25:46.103Z,1019.68
2018-08-06T01:26:46.079Z,1019.70
2018-08-06T01:27:46.056Z,1019.72
2018-08-06T01:28:46.034Z,1019.72
2018-08-06T01:29:46.011Z,1019.70
2018-08-06T01:30:45.988Z,1019.69
2018-08-06T01:31:45.965Z,1019.70
2018-08-06T01:32:45.945Z,1019.71
2018-08-06T01:33:45.919Z,1019.68
2018-08-06T01:34:45.896Z,1019.69
2018-08-06T01:35:45.874Z,1019.75
2018-08-06T01:36:45.851Z,1019.73
2018-08-06T01:37:45.827Z,1019.71
2018-08-06T01:38:45.805Z,1019.74
2018-08-06T01:39:45.782Z,1019.78
2018-08-06T01:40:45.758Z,1019.74
2018-08-06T01:41:45.737Z,1019.72
2018-08-06T01:42:45.711Z,1019.75
2018-08-06T01:43:45.689Z,1019.75
2018-08-06T01:44:45.667Z,1019.74
2018-08-06T01:45:45.650Z,1019.74
2018-08-06T01:46:45.621Z,1019.74
2018-08-06T01:47:45.601Z,1019.78
2018-08-06T01:48:45.575Z,1019.75
2018-08-06T01:49:45.550Z,1019.80
2018-08-06T01:50:45.526Z,1019.74
2018-08-06T01:51:45.504Z,1019.71
2018-08-06T01:52:45.483Z,1019.71
2018-08-06T01:53:45.457Z,1019.71
2018-08-06T01:54:45.434Z,1019.69
2018-08-06T01:55:45.414Z,1019.63
2018-08-06T01:56:45.389Z,1019.67
2018-08-06T01:57:45.366Z,1019.66
2018-08-06T01:58:45.343Z,1019.64
2018-08-06T01:59:45.324Z,1019.63
2018-08-06T02:00:45.298Z,1019.62
2018-08-06T02:01:45.273Z,1019.64
2018-08-06T02:02:45.250Z,1019.62
2018-08-06T02:03:45.227Z,1019.59
2018-08-06T02:04:45.205Z,1019.56
2018-08-06T02:05:45.182Z,1019.58
2018-08-06T02:06:45.159Z,1019.58
2018-08-06T02:07:45.137Z,1019.58
2018-08-06T02:08:45.113Z,1019.57
2018-08-06T02:09:45.090Z,1019.55
2018-08-06T02:10:45.067Z,1019.57
2018-08-06T02:11:45.043Z,1019.54
2018-08-06T02:12:45.024Z,1019.54
2018-08-06T02:13:44.995Z,1019.53
2018-08-06T02:14:44.974Z,1019.51
2018-08-06T02:15:44.950Z,1019.51
2018-08-06T02:16:44.926Z,1019.47
2018-08-06T02:17:44.903Z,1019.50
2018-08-06T02:18:44.881Z,1019.43
2018-08-06T02:19:44.856Z,1019.47
2018-08-06T02:20:44.834Z,1019.43
2018-08-06T02:21:44.810Z,1019.45
2018-08-06T02:22:44.787Z,1019.44
2018-08-06T02:23:44.764Z,1019.45
2018-08-06T02:24:44.742Z,1019.40
2018-08-06T02:25:44.716Z,1019.43
2018-08-06T02:26:44.698Z,1019.42
2018-08-06T02:27:44.671Z,1019.40
2018-08-06T02:28:44.649Z,1019.43
2018-08-06T02:29:44.625Z,1019.39
2018-08-06T02:30:44.601Z,1019.40
2018-08-06T02:31:44.578Z,1019.36
2018-08-06T02:32:44.561Z,1019.37
2018-08-06T02:33:44.532Z,1019.37
2018-08-06T02:34:44.509Z,1019.34
2018-08-06T02:35:44.484Z,1019.36
2018-08-06T02:36:44.467Z,1019.35
2018-08-06T02:37:44.440Z,1019.33
2018-08-06T02:38:44.415Z,1019.32
2018-08-06T02:39:44.392Z,1019.32
2018-08-06T02:40:44.370Z,1019.33
2018-08-06T02:41:44.347Z,1019.30
2018-08-06T02:42:44.322Z,1019.30
2018-08-06T02:43:44.299Z,1019.34
2018-08-06T02:44:44.276Z,1019.32
2018-08-06T02:45:44.252Z,1019.35
2018-08-06T02:46:44.231Z,1019.29
2018-08-06T02:47:44.206Z,1019.31
2018-08-06T02:48:44.183Z,1019.31
2018-08-06T02:49:44.159Z,1019.30
2018-08-06T02:50:44.136Z,1019.28
2018-08-06T02:51:44.113Z,1019.28
2018-08-06T02:52:44.093Z,1019.30
2018-08-06T02:53:44.068Z,1019.28
2018-08-06T02:54:44.043Z,1019.30
2018-08-06T02:55:44.019Z,1019.29
2018-08-06T02:56:43.996Z,1019.30
2018-08-06T02:57:43.974Z,1019.32
2018-08-06T02:58:43.950Z,1019.33
2018-08-06T02:59:43.925Z,1019.33
2018-08-06T03:00:43.902Z,1019.33
2018-08-06T03:01:43.881Z,1019.34
2018-08-06T03:02:43.855Z,1019.35
2018-08-06T03:03:43.834Z,1019.39
2018-08-06T03:04:43.809Z,1019.43
2018-08-06T03:05:43.784Z,1019.40
2018-08-06T03:06:43.761Z,1019.42
2018-08-06T03:07:43.743Z,1019.43
2018-08-06T03:08:43.715Z,1019.42
2018-08-06T03:09:43.691Z,1019.42
2018-08-06T03:10:43.669Z,1019.42
2018-08-06T03:11:43.645Z,1019.40
2018-08-06T03:12:43.621Z,1019.43
2018-08-06T03:13:43.597Z,1019.42
2018-08-06T03:14:43.574Z,1019.45
2018-08-06T03:15:43.551Z,1019.42
2018-08-06T03:16:43.528Z,1019.42
2018-08-06T03:17:43.503Z,1019.42
2018-08-06T03:18:43.486Z,1019.45
2018-08-06T03:19:43.456Z,1019.49
2018-08-06T03:20:43.434Z,1019.47
2018-08-06T03:21:43.410Z,1019.47
2018-08-06T03:22:43.389Z,1019.47
2018-08-06T03:23:43.364Z,1019.49
2018-08-06T03:24:43.340Z,1019.48
2018-08-06T03:25:43.316Z,1019.48
2018-08-06T03:26:43.292Z,1019.49
2018-08-06T03:27:43.270Z,1019.50
2018-08-06T03:28:43.247Z,1019.48
2018-08-06T03:29:43.316Z,1019.49
2018-08-06T03:30:43.199Z,1019.51
2018-08-06T03:31:43.177Z,1019.50
2018-08-06T03:32:43.151Z,1019.53
2018-08-06T03:33:43.128Z,1019.54
2018-08-06T03:34:43.104Z,1019.57
2018-08-06T03:35:43.078Z,1019.54
2018-08-06T03:36:43.056Z,1019.53
2018-08-06T03:37:43.032Z,1019.53
2018-08-06T03:38:43.010Z,1019.54
2018-08-06T03:39:42.985Z,1019.53
2018-08-06T03:40:42.962Z,1019.51
2018-08-06T03:41:42.940Z,1019.52
2018-08-06T03:42:42.915Z,1019.52
2018-08-06T03:43:42.892Z,1019.51
2018-08-06T03:44:42.868Z,1019.52
2018-08-06T03:45:42.844Z,1019.53
2018-08-06T03:46:42.820Z,1019.56
2018-08-06T03:47:42.797Z,1019.55
2018-08-06T03:48:42.773Z,1019.52
2018-08-06T03:49:42.751Z,1019.56
2018-08-06T03:50:42.727Z,1019.59
2018-08-06T03:51:42.703Z,1019.55
2018-08-06T03:52:42.746Z,1019.56
2018-08-06T03:53:42.654Z,1019.57
2018-08-06T03:54:42.633Z,1019.58
2018-08-06T03:55:42.608Z,1019.58
2018-08-06T03:56:42.588Z,1019.57
2018-08-06T03:57:42.561Z,1019.56
2018-08-06T03:58:42.536Z,1019.56
2018-08-06T03:59:42.513Z,1019.55
2018-08-06T04:00:42.491Z,1019.56
2018-08-06T04:01:42.466Z,1019.56
2018-08-06T04:02:42.443Z,1019.51
2018-08-06T04:03:42.419Z,1019.49
2018-08-06T04:04:42.396Z,1019.51
2018-08-06T04:05:42.371Z,1019.52
2018-08-06T04:06:42.348Z,1019.52
2018-08-06T04:07:42.323Z,1019.55
2018-08-06T04:08:42.304Z,1019.57
2018-08-06T04:09:42.278Z,1019.58
2018-08-06T04:10:42.252Z,1019.57
2018-08-06T04:11:42.229Z,1019.57
2018-08-06T04:12:42.206Z,1019.57
2018-08-06T04:13:42.184Z,1019.56
2018-08-06T04:14:42.160Z,1019.57
2018-08-06T04:15:42.142Z,1019.57
2018-08-06T04:16:42.113Z,1019.59
2018-08-06T04:17:42.089Z,1019.57
2018-08-06T04:18:42.064Z,1019.60
2018-08-06T04:19:42.071Z,1019.60
2018-08-06T04:20:42.020Z,1019.61
2018-08-06T04:21:41.993Z,1019.59
2018-08-06T04:22:41.971Z,1019.61
2018-08-06T04:23:41.948Z,1019.64
2018-08-06T04:24:41.924Z,1019.62
2018-08-06T04:25:41.900Z,1019.62
2018-08-06T04:26:41.876Z,1019.61
2018-08-06T04:27:41.853Z,1019.62
2018-08-06T04:28:41.843Z,1019.60
2018-08-06T04:29:41.809Z,1019.62
2018-08-06T04:30:41.784Z,1019.63
2018-08-06T04:32:14.969Z,1019.61
2018-08-06T04:32:41.757Z,1019.62
2018-08-06T04:33:41.712Z,1019.63
2018-08-06T04:34:41.689Z,1019.66
2018-08-06T04:35:41.665Z,1019.64
2018-08-06T04:36:41.644Z,1019.68
2018-08-06T04:37:41.619Z,1019.68
2018-08-06T04:38:41.595Z,1019.69
2018-08-06T04:39:41.573Z,1019.71
2018-08-06T04:40:41.550Z,1019.75
2018-08-06T04:41:41.526Z,1019.74
2018-08-06T04:42:41.503Z,1019.76
2018-08-06T04:43:41.478Z,1019.78
2018-08-06T04:44:41.455Z,1019.77
2018-08-06T04:45:41.431Z,1019.79
2018-08-06T04:46:41.410Z,1019.77
2018-08-06T04:47:41.386Z,1019.78
2018-08-06T04:48:41.364Z,1019.82
2018-08-06T04:49:41.340Z,1019.80
2018-08-06T04:50:41.315Z,1019.82
2018-08-06T04:51:41.293Z,1019.82
2018-08-06T04:52:41.269Z,1019.86
2018-08-06T04:53:41.246Z,1019.83
2018-08-06T04:54:41.227Z,1019.82
2018-08-06T04:55:41.201Z,1019.81
2018-08-06T04:56:41.178Z,1019.84
2018-08-06T04:57:41.154Z,1019.82
2018-08-06T04:58:41.132Z,1019.83
2018-08-06T04:59:41.155Z,1019.84
2018-08-06T05:00:41.085Z,1019.82
2018-08-06T05:01:41.065Z,1019.84
2018-08-06T05:02:41.039Z,1019.85
2018-08-06T05:03:41.017Z,1019.87
2018-08-06T05:04:40.993Z,1019.88
2018-08-06T05:05:40.972Z,1019.90
2018-08-06T05:06:40.948Z,1019.91
2018-08-06T05:07:40.925Z,1019.90
2018-08-06T05:08:40.908Z,1019.91
2018-08-06T05:09:40.878Z,1019.96
2018-08-06T05:10:40.857Z,1019.94
2018-08-06T05:11:40.834Z,1019.93
2018-08-06T05:12:40.811Z,1019.93
2018-08-06T05:13:40.888Z,1019.94
2018-08-06T05:14:40.765Z,1019.91
2018-08-06T05:15:40.743Z,1019.90
2018-08-06T05:16:40.725Z,1019.93
2018-08-06T05:17:40.696Z,1019.91
2018-08-06T05:18:40.675Z,1019.90
2018-08-06T05:19:40.653Z,1019.93
2018-08-06T05:20:40.633Z,1019.92
2018-08-06T05:21:40.608Z,1019.90
2018-08-06T05:22:40.586Z,1019.87
2018-08-06T05:23:40.561Z,1019.92
2018-08-06T05:24:40.572Z,1019.88
2018-08-06T05:25:40.517Z,1019.89
2018-08-06T05:26:40.498Z,1019.92
2018-08-06T05:27:40.473Z,1019.89
2018-08-06T05:28:40.451Z,1019.88
2018-08-06T05:29:40.429Z,1019.92
2018-08-06T05:30:40.405Z,1019.92
2018-08-06T05:31:40.385Z,1019.94
2018-08-06T05:32:40.364Z,1019.97
2018-08-06T05:33:40.340Z,1019.97
2018-08-06T05:34:40.318Z,1020.00
2018-08-06T05:35:40.296Z,1019.97
2018-08-06T05:36:40.275Z,1019.98
2018-08-06T05:37:40.254Z,1019.97
2018-08-06T05:38:40.234Z,1019.97
2018-08-06T05:39:40.213Z,1019.92
2018-08-06T05:40:40.193Z,1019.95
2018-08-06T05:41:40.172Z,1019.98
2018-08-06T05:42:40.160Z,1019.97
2018-08-06T05:43:40.136Z,1019.98
2018-08-06T05:44:40.115Z,1019.96
2018-08-06T05:45:40.100Z,1019.99
2018-08-06T05:46:40.081Z,1020.01
2018-08-06T05:47:40.061Z,1020.01
2018-08-06T05:48:40.044Z,1020.03
2018-08-06T05:49:40.026Z,1020.04
2018-08-06T05:50:40.010Z,1020.09
2018-08-06T05:51:39.993Z,1020.01
2018-08-06T05:52:39.978Z,1020.06
2018-08-06T05:53:39.962Z,1020.04
2018-08-06T05:54:39.945Z,1020.05
2018-08-06T05:55:39.930Z,1020.05
2018-08-06T05:56:39.919Z,1020.03
2018-08-06T05:57:39.901Z,1020.04
2018-08-06T05:58:39.885Z,1020.01
2018-08-06T05:59:39.871Z,1020.01
2018-08-06T06:00:39.856Z,1020.01
2018-08-06T06:01:39.846Z,1020.04
2018-08-06T06:02:39.827Z,1020.05
2018-08-06T06:03:39.814Z,1020.06
2018-08-06T06:04:39.801Z,1020.05
2018-08-06T06:05:39.788Z,1020.05
2018-08-06T06:06:39.772Z,1020.05
2018-08-06T06:07:39.760Z,1020.05
2018-08-06T06:08:39.746Z,1020.10
2018-08-06T06:09:39.735Z,1020.05
2018-08-06T06:10:39.721Z,1020.07
2018-08-06T06:11:39.707Z,1020.06
2018-08-06T06:12:39.696Z,1020.05
2018-08-06T06:13:39.681Z,1020.08
2018-08-06T06:14:39.669Z,1020.06
2018-08-06T06:15:39.657Z,1020.03
2018-08-06T06:16:39.645Z,1020.01
2018-08-06T06:17:39.637Z,1020.08
2018-08-06T06:18:39.622Z,1020.10
2018-08-06T06:19:39.609Z,1020.08
2018-08-06T06:20:39.598Z,1020.09
2018-08-06T06:21:39.584Z,1020.07
2018-08-06T06:22:39.575Z,1020.10
2018-08-06T06:23:39.561Z,1020.09
2018-08-06T06:24:39.552Z,1020.05
2018-08-06T06:25:39.573Z,1020.03
2018-08-06T06:26:39.526Z,1020.07
2018-08-06T06:27:39.516Z,1020.04
2018-08-06T06:28:39.547Z,1020.04
2018-08-06T06:29:39.498Z,1020.03
2018-08-06T06:30:39.481Z,1019.99
2018-08-06T06:31:39.471Z,1020.01
2018-08-06T06:32:39.458Z,1020.00
2018-08-06T06:33:39.447Z,1020.03
2018-08-06T06:34:39.513Z,1020.02
2018-08-06T06:35:39.427Z,1020.00
2018-08-06T06:36:39.416Z,1019.98
2018-08-06T06:37:39.403Z,1020.00
2018-08-06T06:38:39.393Z,1020.00
2018-08-06T06:39:39.383Z,1019.98
2018-08-06T06:40:39.375Z,1020.00
2018-08-06T06:41:39.414Z,1020.01
2018-08-06T06:42:39.351Z,1020.02
2018-08-06T06:43:39.342Z,1020.01
2018-08-06T06:44:39.331Z,1020.00
2018-08-06T06:45:39.319Z,1020.00
2018-08-06T06:46:39.310Z,1020.00
2018-08-06T06:47:39.299Z,1020.02
2018-08-06T06:48:39.290Z,1020.00
2018-08-06T06:49:39.277Z,1020.00
2018-08-06T06:50:39.268Z,1019.94
2018-08-06T06:51:39.258Z,1019.96
2018-08-06T06:52:39.247Z,1019.95
2018-08-06T06:53:39.236Z,1019.96
2018-08-06T06:54:39.231Z,1019.92
2018-08-06T06:55:39.219Z,1019.90
2018-08-06T06:56:39.208Z,1019.92
2018-08-06T06:57:39.195Z,1019.87
2018-08-06T06:58:39.187Z,1019.86
2018-08-06T06:59:39.178Z,1019.92
2018-08-06T07:00:39.171Z,1019.89
2018-08-06T07:01:39.159Z,1019.89
2018-08-06T07:02:39.156Z,1019.91
2018-08-06T07:03:39.137Z,1019.88
2018-08-06T07:04:39.127Z,1019.88
2018-08-06T07:05:39.117Z,1019.90
2018-08-06T07:06:39.108Z,1019.88
2018-08-06T07:07:39.098Z,1019.86
2018-08-06T07:08:39.087Z,1019.92
2018-08-06T07:09:39.078Z,1019.91
2018-08-06T07:10:39.068Z,1019.96
2018-08-06T07:11:39.059Z,1019.94
2018-08-06T07:12:39.048Z,1019.98
2018-08-06T07:13:39.049Z,1019.98
2018-08-06T07:14:39.067Z,1019.98
2018-08-06T07:15:39.019Z,1019.96
2018-08-06T07:16:39.009Z,1019.94
2018-08-06T07:17:39.000Z,1019.90
2018-08-06T07:18:38.987Z,1019.92
2018-08-06T07:19:38.980Z,1019.93
2018-08-06T07:20:38.969Z,1019.95
2018-08-06T07:21:38.959Z,1019.95
2018-08-06T07:22:38.947Z,1019.98
2018-08-06T07:23:38.938Z,1019.94
2018-08-06T07:24:38.933Z,1019.92
2018-08-06T07:25:38.917Z,1019.92
2018-08-06T07:26:38.907Z,1019.91
2018-08-06T07:27:38.898Z,1019.90
2018-08-06T07:28:38.887Z,1019.88
2018-08-06T07:29:38.876Z,1019.87
2018-08-06T07:30:38.865Z,1019.86
2018-08-06T07:31:38.855Z,1019.87
2018-08-06T07:32:38.845Z,1019.86
2018-08-06T07:33:38.859Z,1019.86
2018-08-06T07:34:38.824Z,1019.81
2018-08-06T07:35:38.813Z,1019.84
2018-08-06T07:36:38.804Z,1019.79
2018-08-06T07:37:38.794Z,1019.80
2018-08-06T07:38:38.781Z,1019.79
2018-08-06T07:39:38.770Z,1019.82
2018-08-06T07:40:38.759Z,1019.79
2018-08-06T07:41:38.747Z,1019.74
2018-08-06T07:42:38.738Z,1019.73
2018-08-06T07:43:38.727Z,1019.70
2018-08-06T07:44:38.718Z,1019.74
2018-08-06T07:45:38.706Z,1019.75
2018-08-06T07:46:38.695Z,1019.70
2018-08-06T07:47:38.687Z,1019.68
2018-08-06T07:48:38.676Z,1019.68
2018-08-06T07:49:38.716Z,1019.68
2018-08-06T07:50:38.655Z,1019.65
2018-08-06T07:51:38.647Z,1019.61
2018-08-06T07:52:38.636Z,1019.64
2018-08-06T07:53:38.625Z,1019.61
2018-08-06T07:54:38.616Z,1019.58
2018-08-06T07:55:38.607Z,1019.55
2018-08-06T07:56:38.596Z,1019.52
2018-08-06T07:57:38.586Z,1019.56
2018-08-06T07:58:38.579Z,1019.55
2018-08-06T07:59:38.584Z,1019.53
2018-08-06T08:00:38.556Z,1019.56
2018-08-06T08:01:38.546Z,1019.55
2018-08-06T08:02:38.537Z,1019.54
2018-08-06T08:03:38.526Z,1019.50
2018-08-06T08:04:38.518Z,1019.45
2018-08-06T08:05:38.507Z,1019.43
2018-08-06T08:06:38.498Z,1019.46
2018-08-06T08:07:38.489Z,1019.45
2018-08-06T08:08:38.478Z,1019.45
2018-08-06T08:09:38.469Z,1019.45
2018-08-06T08:10:38.461Z,1019.45
2018-08-06T08:11:38.450Z,1019.45
2018-08-06T08:12:38.440Z,1019.44
2018-08-06T08:13:38.430Z,1019.44
2018-08-06T08:14:38.423Z,1019.46
2018-08-06T08:15:38.413Z,1019.42
2018-08-06T08:16:38.402Z,1019.41
2018-08-06T08:17:38.394Z,1019.38
2018-08-06T08:18:38.384Z,1019.36
2018-08-06T08:19:38.494Z,1019.37
2018-08-06T08:20:38.366Z,1019.32
2018-08-06T08:21:38.356Z,1019.36
2018-08-06T08:22:38.345Z,1019.35
2018-08-06T08:23:38.336Z,1019.27
2018-08-06T08:24:38.328Z,1019.31
2018-08-06T08:25:38.316Z,1019.35
2018-08-06T08:26:38.307Z,1019.28
2018-08-06T08:27:38.298Z,1019.26
2018-08-06T08:28:38.287Z,1019.26
2018-08-06T08:29:38.277Z,1019.28
2018-08-06T08:30:38.266Z,1019.23
2018-08-06T08:31:38.257Z,1019.23
2018-08-06T08:32:38.248Z,1019.19
2018-08-06T08:33:38.237Z,1019.22
2018-08-06T08:34:38.227Z,1019.19
2018-08-06T08:35:38.217Z,1019.19
2018-08-06T08:36:38.207Z,1019.16
2018-08-06T08:37:38.200Z,1019.15
2018-08-06T08:38:38.188Z,1019.15
2018-08-06T08:39:38.216Z,1019.10
2018-08-06T08:40:38.166Z,1019.10
2018-08-06T08:41:38.157Z,1019.10
2018-08-06T08:42:38.149Z,1019.05
2018-08-06T08:43:38.138Z,1019.07
2018-08-06T08:44:38.127Z,1019.02
2018-08-06T08:45:38.284Z,1019.04
2018-08-06T08:46:38.108Z,1019.06
2018-08-06T08:47:38.107Z,1019.02
2018-08-06T08:48:38.091Z,1019.09
2018-08-06T08:49:38.082Z,1019.01
2018-08-06T08:50:38.072Z,1019.00
2018-08-06T08:51:38.063Z,1019.00
2018-08-06T08:52:38.055Z,1019.01
2018-08-06T08:53:38.043Z,1018.98
2018-08-06T08:54:38.035Z,1019.00
2018-08-06T08:55:38.025Z,1019.00
2018-08-06T08:56:38.017Z,1018.99
2018-08-06T08:57:38.009Z,1018.98
2018-08-06T08:58:38.009Z,1018.94
2018-08-06T08:59:37.991Z,1018.90
2018-08-06T09:00:37.977Z,1018.87
2018-08-06T09:01:37.970Z,1018.93
2018-08-06T09:02:37.958Z,1018.90
2018-08-06T09:03:37.950Z,1018.94
2018-08-06T09:04:37.960Z,1018.92
2018-08-06T09:05:37.930Z,1018.87
2018-08-06T09:06:37.920Z,1018.83
2018-08-06T09:07:37.910Z,1018.85
2018-08-06T09:08:37.900Z,1018.81
2018-08-06T09:09:37.890Z,1018.79
2018-08-06T09:10:37.881Z,1018.77
2018-08-06T09:11:37.872Z,1018.78
2018-08-06T09:12:37.861Z,1018.78
2018-08-06T09:13:37.853Z,1018.78
2018-08-06T09:14:37.842Z,1018.73
2018-08-06T09:15:37.831Z,1018.79
2018-08-06T09:16:37.821Z,1018.74
2018-08-06T09:17:37.812Z,1018.74
2018-08-06T09:18:37.803Z,1018.68
2018-08-06T09:19:37.793Z,1018.71
2018-08-06T09:20:37.784Z,1018.72
2018-08-06T09:21:37.773Z,1018.70
2018-08-06T09:22:37.774Z,1018.69
2018-08-06T09:23:37.754Z,1018.66
2018-08-06T09:24:37.746Z,1018.67
2018-08-06T09:25:37.752Z,1018.64
2018-08-06T09:26:37.768Z,1018.66
2018-08-06T09:27:37.717Z,1018.63
2018-08-06T09:28:37.707Z,1018.61
2018-08-06T09:29:37.697Z,1018.57
2018-08-06T09:30:37.687Z,1018.62
2018-08-06T09:31:37.683Z,1018.62
2018-08-06T09:32:37.669Z,1018.58
2018-08-06T09:33:37.659Z,1018.57
2018-08-06T09:34:37.651Z,1018.57
2018-08-06T09:35:37.641Z,1018.59
2018-08-06T09:36:37.632Z,1018.54
2018-08-06T09:37:37.622Z,1018.55
2018-08-06T09:38:37.613Z,1018.57
2018-08-06T09:39:37.605Z,1018.59
2018-08-06T09:40:37.682Z,1018.59
2018-08-06T09:41:37.587Z,1018.53
2018-08-06T09:42:37.577Z,1018.54
2018-08-06T09:43:37.570Z,1018.48
2018-08-06T09:44:37.561Z,1018.56
2018-08-06T09:45:37.550Z,1018.51
2018-08-06T09:46:37.550Z,1018.51
2018-08-06T09:47:37.534Z,1018.52
2018-08-06T09:48:37.527Z,1018.51
2018-08-06T09:49:37.517Z,1018.53
2018-08-06T09:50:37.507Z,1018.47
2018-08-06T09:51:37.500Z,1018.49
2018-08-06T09:52:37.492Z,1018.51
2018-08-06T09:53:37.482Z,1018.48
2018-08-06T09:54:37.473Z,1018.47
2018-08-06T09:55:37.464Z,1018.46
2018-08-06T09:56:37.456Z,1018.49
2018-08-06T09:57:37.447Z,1018.48
2018-08-06T09:58:37.439Z,1018.40
2018-08-06T09:59:37.430Z,1018.43
2018-08-06T10:00:37.422Z,1018.47
2018-08-06T10:01:37.414Z,1018.47
2018-08-06T10:02:37.405Z,1018.46
2018-08-06T10:03:37.396Z,1018.45
2018-08-06T10:04:37.386Z,1018.47
2018-08-06T10:05:37.505Z,1018.42
2018-08-06T10:06:37.497Z,1018.41
2018-08-06T10:07:37.362Z,1018.45
2018-08-06T10:08:37.352Z,1018.40
2018-08-06T10:09:37.343Z,1018.38
2018-08-06T10:10:37.334Z,1018.41
2018-08-06T10:11:37.325Z,1018.35
2018-08-06T10:12:37.317Z,1018.37
2018-08-06T10:13:37.306Z,1018.38
2018-08-06T10:14:37.304Z,1018.37
2018-08-06T10:15:37.290Z,1018.40
2018-08-06T10:16:37.281Z,1018.36
2018-08-06T10:17:37.273Z,1018.37
2018-08-06T10:18:37.265Z,1018.29
2018-08-06T10:19:37.350Z,1018.28
2018-08-06T10:20:37.247Z,1018.30
2018-08-06T10:21:37.236Z,1018.30
2018-08-06T10:22:37.227Z,1018.31
2018-08-06T10:23:37.221Z,1018.30
2018-08-06T10:24:37.275Z,1018.27
2018-08-06T10:25:37.203Z,1018.27
2018-08-06T10:26:37.194Z,1018.32
2018-08-06T10:27:37.186Z,1018.29
2018-08-06T10:28:37.178Z,1018.26
2018-08-06T10:29:37.168Z,1018.29
2018-08-06T10:30:37.225Z,1018.23
2018-08-06T10:31:37.152Z,1018.28
2018-08-06T10:32:37.144Z,1018.23
2018-08-06T10:33:37.135Z,1018.21
2018-08-06T10:34:37.127Z,1018.18
2018-08-06T10:35:37.118Z,1018.15
2018-08-06T10:36:37.108Z,1018.16
2018-08-06T10:37:37.098Z,1018.15
2018-08-06T10:38:37.091Z,1018.12
2018-08-06T10:39:37.081Z,1018.07
2018-08-06T10:40:37.073Z,1018.10
2018-08-06T10:41:37.064Z,1018.07
2018-08-06T10:42:37.054Z,1018.05
2018-08-06T10:43:37.046Z,1018.05
2018-08-06T10:44:37.037Z,1018.05
2018-08-06T10:45:37.030Z,1018.05
2018-08-06T10:46:37.021Z,1018.01
2018-08-06T10:47:37.011Z,1018.01
2018-08-06T10:48:37.045Z,1018.01
2018-08-06T10:49:36.994Z,1017.99
2018-08-06T10:50:36.987Z,1017.95
2018-08-06T10:51:36.977Z,1017.95
2018-08-06T10:52:36.970Z,1017.94
2018-08-06T10:53:36.964Z,1017.93
2018-08-06T10:54:36.952Z,1017.91
2018-08-06T10:55:36.944Z,1017.91
2018-08-06T10:56:36.939Z,1017.92
2018-08-06T10:57:37.000Z,1017.91
2018-08-06T10:58:36.919Z,1017.92
2018-08-06T10:59:36.973Z,1017.92
2018-08-06T11:00:36.902Z,1017.90
2018-08-06T11:01:36.892Z,1017.89
2018-08-06T11:02:36.883Z,1017.87
2018-08-06T11:03:36.876Z,1017.87
2018-08-06T11:04:36.868Z,1017.82
2018-08-06T11:05:36.858Z,1017.82
2018-08-06T11:06:36.911Z,1017.78
2018-08-06T11:07:36.841Z,1017.77
2018-08-06T11:08:36.832Z,1017.74
2018-08-06T11:09:36.824Z,1017.72
2018-08-06T11:10:36.819Z,1017.70
2018-08-06T11:11:36.804Z,1017.68
2018-08-06T11:12:36.795Z,1017.66
2018-08-06T11:13:36.786Z,1017.65
2018-08-06T11:14:36.783Z,1017.64
2018-08-06T11:15:36.768Z,1017.63
2018-08-06T11:16:36.763Z,1017.60
2018-08-06T11:17:36.750Z,1017.58
2018-08-06T11:18:36.741Z,1017.61
2018-08-06T11:19:36.732Z,1017.58
2018-08-06T11:20:36.789Z,1017.56
2018-08-06T11:21:36.714Z,1017.57
2018-08-06T11:22:36.707Z,1017.52
2018-08-06T11:23:36.699Z,1017.52
2018-08-06T11:24:36.690Z,1017.52
2018-08-06T11:25:36.679Z,1017.47
2018-08-06T11:26:36.670Z,1017.47
2018-08-06T11:27:36.669Z,1017.44
2018-08-06T11:28:36.720Z,1017.47
2018-08-06T11:29:36.644Z,1017.43
2018-08-06T11:30:36.638Z,1017.41
2018-08-06T11:31:36.628Z,1017.41
2018-08-06T11:32:36.619Z,1017.43
2018-08-06T11:33:36.610Z,1017.42
2018-08-06T11:34:36.603Z,1017.39
2018-08-06T11:35:36.598Z,1017.36
2018-08-06T11:36:36.615Z,1017.34
2018-08-06T11:37:36.576Z,1017.32
2018-08-06T11:38:36.567Z,1017.30
2018-08-06T11:39:36.561Z,1017.26
2018-08-06T11:40:36.550Z,1017.28
2018-08-06T11:41:36.540Z,1017.29
2018-08-06T11:42:36.530Z,1017.21
2018-08-06T11:43:36.521Z,1017.23
2018-08-06T11:44:36.514Z,1017.23
2018-08-06T11:45:36.504Z,1017.22
2018-08-06T11:46:36.495Z,1017.23
2018-08-06T11:47:36.487Z,1017.21
2018-08-06T11:48:36.478Z,1017.19
2018-08-06T11:49:36.469Z,1017.19
2018-08-06T11:50:36.465Z,1017.17
2018-08-06T11:51:36.452Z,1017.19
2018-08-06T11:52:36.443Z,1017.20
2018-08-06T11:53:36.436Z,1017.20
2018-08-06T11:54:36.428Z,1017.23
2018-08-06T11:55:36.417Z,1017.18
2018-08-06T11:56:36.478Z,1017.17
2018-08-06T11:57:36.402Z,1017.13
2018-08-06T11:58:36.391Z,1017.09
2018-08-06T11:59:36.395Z,1017.08
2018-08-06T12:00:36.374Z,1017.07
2018-08-06T12:01:36.363Z,1017.02
2018-08-06T12:02:36.354Z,1017.04
2018-08-06T12:03:36.351Z,1017.05
2018-08-06T12:04:36.338Z,1016.99
2018-08-06T12:05:36.327Z,1017.04